Time;durP1;ratioP1;P1;durP2;ratioP2;P2;SDS_P1;SDS_P2;PMS_P1;PMS_P2;Temp;Humidity;BMP_temperature;BMP_pressure;BME280_temperature;BME280_humidity;BME280_pressure;Samples;Min_cycle;Max_cycle;Signal;HPM_P1;HPM_P2
2023/05/07 00:00:24;;;;;;;2.55;2.30;;;21.30;51.40;;;;;;5087880;28;45266;-67
2023/05/07 00:02:51;;;;;;;3.05;2.42;;;21.30;51.40;;;;;;5087891;28;45367;-67
2023/05/07 00:05:18;;;;;;;2.65;2.33;;;21.20;51.40;;;;;;5087481;28;46449;-67
2023/05/07 00:07:48;;;;;;;2.55;2.35;;;21.20;51.50;;;;;;5087768;28;45312;-67
2023/05/07 00:10:15;;;;;;;2.92;2.30;;;21.20;51.50;;;;;;5087675;28;45320;-67
2023/05/07 00:12:43;;;;;;;4.47;2.60;;;21.20;51.50;;;;;;5087657;28;45388;-67
2023/05/07 00:15:10;;;;;;;3.58;2.33;;;21.20;51.60;;;;;;5087531;28;46286;-67
2023/05/07 00:17:37;;;;;;;3.33;2.55;;;21.20;51.70;;;;;;5087518;28;45245;-67
2023/05/07 00:20:04;;;;;;;3.28;2.33;;;21.20;51.60;;;;;;5086729;28;45340;-67
2023/05/07 00:22:32;;;;;;;2.85;2.65;;;21.20;51.60;;;;;;5087459;28;45337;-67
2023/05/07 00:24:59;;;;;;;3.00;2.63;;;21.20;51.70;;;;;;5087092;28;45406;-67
2023/05/07 00:27:25;;;;;;;2.60;2.40;;;21.10;51.60;;;;;;5086666;28;45638;-67
2023/05/07 00:29:54;;;;;;;2.45;2.25;;;21.10;51.60;;;;;;5087488;28;45242;-67
2023/05/07 00:32:20;;;;;;;2.65;2.45;;;21.10;51.60;;;;;;5087141;28;45428;-66
2023/05/07 00:34:47;;;;;;;4.07;2.45;;;21.10;51.70;;;;;;5087185;28;45352;-67
2023/05/07 00:37:14;;;;;;;3.28;2.25;;;21.10;51.70;;;;;;5086990;28;45432;-67
2023/05/07 00:39:41;;;;;;;2.83;2.60;;;21.10;51.80;;;;;;5087316;28;45308;-67
2023/05/07 00:42:08;;;;;;;3.10;2.70;;;21.00;51.70;;;;;;5087324;28;45242;-67
2023/05/07 00:44:34;;;;;;;2.70;2.15;;;21.00;51.80;;;;;;5086238;28;46552;-66
2023/05/07 00:47:03;;;;;;;3.63;2.40;;;21.00;51.70;;;;;;5086986;28;45365;-67
2023/05/07 00:49:35;;;;;;;3.45;2.25;;;21.00;51.80;;;;;;5087206;28;45380;-67
2023/05/07 00:52:02;;;;;;;2.92;2.25;;;21.00;51.70;;;;;;5087063;28;45430;-67
2023/05/07 00:54:29;;;;;;;2.30;2.10;;;21.00;51.80;;;;;;5086680;28;45394;-67
2023/05/07 00:56:56;;;;;;;2.80;2.50;;;21.00;51.70;;;;;;5087313;28;45438;-67
2023/05/07 00:59:23;;;;;;;4.47;2.17;;;21.00;51.80;;;;;;5087046;28;45303;-67
2023/05/07 01:01:49;;;;;;;2.63;2.10;;;20.90;51.80;;;;;;5087066;28;45331;-67
2023/05/07 01:04:18;;;;;;;2.50;2.30;;;20.90;51.80;;;;;;5086607;28;46701;-67
2023/05/07 01:06:45;;;;;;;2.22;2.03;;;20.90;51.80;;;;;;5086391;28;45443;-66
2023/05/07 01:09:12;;;;;;;2.40;2.20;;;20.90;51.80;;;;;;5086707;28;45418;-67
2023/05/07 01:11:39;;;;;;;2.53;2.33;;;20.90;51.80;;;;;;5086845;28;45412;-67
2023/05/07 01:14:05;;;;;;;2.22;1.92;;;20.90;51.80;;;;;;5085837;28;46578;-66
2023/05/07 01:16:32;;;;;;;2.20;2.00;;;20.90;52.40;;;;;;5086497;28;45457;-67
2023/05/07 01:18:59;;;;;;;2.60;2.20;;;20.80;51.80;;;;;;5086640;28;45387;-67
2023/05/07 01:21:27;;;;;;;2.42;2.22;;;20.80;51.70;;;;;;5086827;28;45324;-67
2023/05/07 01:23:55;;;;;;;2.28;2.08;;;20.80;51.80;;;;;;5086338;28;45537;-66
2023/05/07 01:26:23;;;;;;;2.05;1.75;;;20.80;51.70;;;;;;5086296;28;45380;-67
2023/05/07 01:28:50;;;;;;;2.00;1.90;;;20.80;51.80;;;;;;5086521;28;45392;-67
2023/05/07 01:31:17;;;;;;;2.22;2.03;;;20.80;51.80;;;;;;5085371;27;45250;-67
2023/05/07 01:33:44;;;;;;;2.10;1.90;;;20.80;51.80;;;;;;5086484;28;47350;-67
2023/05/07 01:36:10;;;;;;;2.35;2.10;;;20.80;51.80;;;;;;5086120;28;45315;-67
2023/05/07 01:38:37;;;;;;;2.10;1.85;;;20.80;51.70;;;;;;5086448;28;45395;-67
2023/05/07 01:41:06;;;;;;;1.90;1.67;;;20.70;51.80;;;;;;5086446;28;45309;-67
2023/05/07 01:43:32;;;;;;;1.80;1.70;;;20.70;51.70;;;;;;5085461;28;45666;-67
2023/05/07 01:45:59;;;;;;;2.00;1.90;;;20.70;51.80;;;;;;5086136;28;45264;-67
2023/05/07 01:48:26;;;;;;;2.33;2.05;;;20.70;51.80;;;;;;5086242;28;45250;-67
2023/05/07 01:50:53;;;;;;;2.28;2.03;;;20.70;51.80;;;;;;5086431;28;45313;-67
2023/05/07 01:53:20;;;;;;;2.10;1.90;;;20.70;52.50;;;;;;5085828;28;45317;-66
2023/05/07 01:55:46;;;;;;;2.25;2.05;;;20.70;51.90;;;;;;5086088;28;45346;-67
2023/05/07 01:58:15;;;;;;;2.05;1.88;;;20.60;51.70;;;;;;5086028;28;45293;-66
2023/05/07 02:00:41;;;;;;;1.95;1.73;;;20.60;51.80;;;;;;5086281;28;45312;-67
2023/05/07 02:03:08;;;;;;;2.10;1.90;;;20.60;52.50;;;;;;5085661;28;46357;-67
2023/05/07 02:05:35;;;;;;;2.20;2.00;;;20.60;51.90;;;;;;5085932;28;45371;-67
2023/05/07 02:08:02;;;;;;;1.90;1.80;;;20.60;51.90;;;;;;5085867;28;45281;-66
2023/05/07 02:10:29;;;;;;;1.98;1.83;;;20.60;52.00;;;;;;5086062;28;45400;-67
2023/05/07 02:12:56;;;;;;;3.47;2.25;;;20.50;51.90;;;;;;5085447;28;45423;-66
2023/05/07 02:15:24;;;;;;;1.90;1.80;;;20.50;51.90;;;;;;5085604;28;45443;-66
2023/05/07 02:18:01;;;;;;;3.08;1.92;;;20.50;52.00;;;;;;5085813;28;45351;-67
2023/05/07 02:20:28;;;;;;;1.95;1.85;;;20.50;51.90;;;;;;5084899;28;45302;-66
2023/05/07 02:22:54;;;;;;;2.92;1.95;;;20.50;52.00;;;;;;5085385;28;46613;-66
2023/05/07 02:25:21;;;;;;;2.00;1.80;;;20.50;52.00;;;;;;5085358;28;45275;-67
2023/05/07 02:27:48;;;;;;;3.65;2.05;;;20.50;52.00;;;;;;5085316;28;45392;-66
2023/05/07 02:30:15;;;;;;;2.00;1.90;;;20.40;52.00;;;;;;5085807;28;45355;-66
2023/05/07 02:32:43;;;;;;;1.73;1.63;;;20.40;52.00;;;;;;5085345;28;46404;-66
2023/05/07 02:35:10;;;;;;;3.20;2.20;;;20.40;52.00;;;;;;5085425;28;45187;-66
2023/05/07 02:37:37;;;;;;;1.92;1.83;;;20.40;52.10;;;;;;5085571;28;45222;-66
2023/05/07 02:40:05;;;;;;;2.35;2.13;;;20.40;52.10;;;;;;5085617;28;45367;-66
2023/05/07 02:42:32;;;;;;;2.25;1.88;;;20.30;52.00;;;;;;5087319;27;45375;-67
2023/05/07 02:44:59;;;;;;;1.88;1.77;;;20.30;52.10;;;;;;5088920;28;45273;-67
2023/05/07 02:47:26;;;;;;;2.92;2.20;;;20.30;52.10;;;;;;5089052;28;45285;-66
2023/05/07 02:49:55;;;;;;;2.03;1.88;;;20.30;52.10;;;;;;5086616;28;45387;-67
2023/05/07 02:52:21;;;;;;;3.58;1.92;;;20.30;52.10;;;;;;5088657;28;46357;-67
2023/05/07 02:54:48;;;;;;;2.42;1.90;;;20.30;52.30;;;;;;5088876;28;45176;-67
2023/05/07 02:57:15;;;;;;;2.63;2.15;;;20.20;52.20;;;;;;5089059;28;45272;-66
2023/05/07 02:59:42;;;;;;;2.83;2.20;;;20.20;52.20;;;;;;5089029;28;45304;-66
2023/05/07 03:02:09;;;;;;;2.13;1.92;;;20.20;52.20;;;;;;5088504;28;46372;-67
2023/05/07 03:04:36;;;;;;;2.80;2.10;;;20.20;52.30;;;;;;5088650;28;45451;-67
2023/05/07 03:07:04;;;;;;;2.08;1.90;;;20.20;52.20;;;;;;5088709;28;45294;-66
2023/05/07 03:09:31;;;;;;;2.20;2.00;;;20.20;52.30;;;;;;5089012;28;45392;-66
2023/05/07 03:11:58;;;;;;;2.00;1.88;;;20.10;52.20;;;;;;5085810;28;45529;-67
2023/05/07 03:14:25;;;;;;;2.33;2.13;;;20.10;52.20;;;;;;5088486;28;45326;-67
2023/05/07 03:16:52;;;;;;;2.20;2.00;;;20.10;52.30;;;;;;5087712;28;45345;-67
2023/05/07 03:19:18;;;;;;;2.58;2.10;;;20.10;52.30;;;;;;5088543;28;45244;-67
2023/05/07 03:21:45;;;;;;;2.75;2.15;;;20.10;52.40;;;;;;5085576;28;45296;-67
2023/05/07 03:24:13;;;;;;;2.72;1.90;;;20.00;52.40;;;;;;5088427;28;45257;-66
2023/05/07 03:26:40;;;;;;;2.35;1.95;;;20.00;52.40;;;;;;5088317;28;45311;-66
2023/05/07 03:29:07;;;;;;;2.13;1.98;;;20.00;52.30;;;;;;5088626;28;45466;-66
2023/05/07 03:31:34;;;;;;;1.95;1.80;;;20.00;52.30;;;;;;5088125;28;45323;-66
2023/05/07 03:34:01;;;;;;;2.70;2.03;;;20.00;52.30;;;;;;5088224;28;45274;-67
2023/05/07 03:36:28;;;;;;;2.47;1.77;;;20.00;52.40;;;;;;5088541;28;45595;-66
2023/05/07 03:38:55;;;;;;;2.30;2.03;;;20.00;52.40;;;;;;5088472;28;45368;-67
2023/05/07 03:41:23;;;;;;;1.92;1.83;;;20.00;52.40;;;;;;5087979;28;47632;-67
2023/05/07 03:43:50;;;;;;;2.63;1.92;;;19.90;52.30;;;;;;5088081;28;45317;-66
2023/05/07 03:46:17;;;;;;;2.83;1.80;;;19.90;52.40;;;;;;5088021;28;45285;-67
2023/05/07 03:48:43;;;;;;;2.22;1.90;;;19.90;52.30;;;;;;5088188;28;45442;-67
2023/05/07 03:51:10;;;;;;;2.00;1.90;;;19.90;52.40;;;;;;5087729;28;45378;-67
2023/05/07 03:53:37;;;;;;;1.80;1.70;;;19.90;52.40;;;;;;5086791;27;45356;-67
2023/05/07 03:56:04;;;;;;;1.92;1.80;;;19.90;52.40;;;;;;5088042;28;45177;-67
2023/05/07 03:58:32;;;;;;;1.90;1.80;;;19.90;52.40;;;;;;5088402;28;45361;-67
2023/05/07 04:00:59;;;;;;;2.00;1.67;;;19.90;52.40;;;;;;5087764;28;46775;-67
2023/05/07 04:03:26;;;;;;;2.40;1.90;;;19.90;52.40;;;;;;5087706;28;45377;-67
2023/05/07 04:05:53;;;;;;;1.77;1.67;;;19.80;52.40;;;;;;5087884;28;45339;-66
2023/05/07 04:08:20;;;;;;;1.60;1.50;;;19.80;52.40;;;;;;5088052;28;45401;-66
2023/05/07 04:10:47;;;;;;;1.70;1.60;;;19.80;52.50;;;;;;5087671;28;45412;-68
2023/05/07 04:13:14;;;;;;;2.15;1.77;;;19.80;52.50;;;;;;5087259;28;45378;-67
2023/05/07 04:15:42;;;;;;;2.17;1.90;;;19.80;52.40;;;;;;5087508;28;45512;-66
2023/05/07 04:18:09;;;;;;;1.50;1.40;;;19.80;52.70;;;;;;5087722;28;45317;-68
2023/05/07 04:20:37;;;;;;;2.90;1.40;;;19.80;53.00;;;;;;5087297;28;46411;-68
2023/05/07 04:23:04;;;;;;;1.80;1.52;;;19.80;53.30;;;;;;5087283;28;45270;-68
2023/05/07 04:25:30;;;;;;;1.88;1.60;;;19.80;53.40;;;;;;5087477;28;45461;-68
2023/05/07 04:27:57;;;;;;;1.67;1.48;;;19.70;53.50;;;;;;5087111;28;45479;-69
2023/05/07 04:30:24;;;;;;;1.67;1.45;;;19.70;53.60;;;;;;5087120;28;46387;-68
2023/05/07 04:32:52;;;;;;;3.17;1.50;;;19.70;53.70;;;;;;5087107;28;45274;-68
2023/05/07 04:35:19;;;;;;;2.80;1.70;;;19.70;53.90;;;;;;5087347;28;45186;-68
2023/05/07 04:37:46;;;;;;;3.38;1.70;;;19.70;54.10;;;;;;5087606;28;45344;-68
2023/05/07 04:40:13;;;;;;;1.75;1.65;;;19.70;54.30;;;;;;5086919;28;46250;-69
2023/05/07 04:42:40;;;;;;;3.03;1.58;;;19.70;54.30;;;;;;5087064;28;45229;-69
2023/05/07 04:45:08;;;;;;;3.15;1.77;;;19.60;54.40;;;;;;5087259;28;45365;-68
2023/05/07 04:47:35;;;;;;;1.70;1.50;;;19.70;54.50;;;;;;5087227;28;45426;-68
2023/05/07 04:50:03;;;;;;;3.63;1.90;;;19.60;54.50;;;;;;5086912;28;45301;-68
2023/05/07 04:52:31;;;;;;;3.35;1.95;;;19.60;54.80;;;;;;5086823;28;45252;-68
2023/05/07 04:54:59;;;;;;;2.17;2.03;;;19.60;54.90;;;;;;5087032;28;45308;-68
2023/05/07 04:57:26;;;;;;;1.80;1.70;;;19.60;55.10;;;;;;5087263;28;45345;-68
2023/05/07 04:59:53;;;;;;;2.40;2.20;;;19.60;55.10;;;;;;5086817;28;45410;-68
2023/05/07 05:02:20;;;;;;;2.85;2.28;;;19.60;55.20;;;;;;5086710;28;45395;-69
2023/05/07 05:04:46;;;;;;;2.08;1.80;;;19.60;55.40;;;;;;5087059;28;45614;-68
2023/05/07 05:07:15;;;;;;;2.40;2.20;;;19.60;55.50;;;;;;5087022;28;45289;-68
2023/05/07 05:09:42;;;;;;;5.45;2.33;;;19.60;55.60;;;;;;5085942;28;46427;-68
2023/05/07 05:12:08;;;;;;;3.35;1.92;;;19.60;55.80;;;;;;5086532;28;45314;-68
2023/05/07 05:14:35;;;;;;;2.85;2.42;;;19.50;55.80;;;;;;5086765;28;45397;-68
2023/05/07 05:17:02;;;;;;;2.78;2.30;;;19.50;56.00;;;;;;5086843;28;45229;-69
2023/05/07 05:19:29;;;;;;;3.05;2.50;;;19.50;56.00;;;;;;5086430;28;45320;-69
2023/05/07 05:21:56;;;;;;;2.60;2.38;;;19.50;56.20;;;;;;5085776;28;45559;-68
2023/05/07 05:24:24;;;;;;;3.33;2.75;;;19.50;56.30;;;;;;5086919;28;45331;-68
2023/05/07 05:26:51;;;;;;;3.15;2.75;;;19.50;56.50;;;;;;5086396;28;45395;-68
2023/05/07 05:29:17;;;;;;;4.00;2.78;;;19.50;56.60;;;;;;5086331;28;46416;-68
2023/05/07 05:31:44;;;;;;;3.70;2.60;;;19.50;56.70;;;;;;5083633;28;45408;-69
2023/05/07 05:34:11;;;;;;;5.07;2.53;;;19.50;56.70;;;;;;5086551;28;45309;-69
2023/05/07 05:36:38;;;;;;;2.97;2.67;;;19.50;56.90;;;;;;5086602;28;45428;-68
2023/05/07 05:39:05;;;;;;;5.45;2.35;;;19.50;56.90;;;;;;5086206;28;46252;-69
2023/05/07 05:41:33;;;;;;;2.40;2.30;;;19.50;57.00;;;;;;5085545;28;45312;-68
2023/05/07 05:44:00;;;;;;;2.75;1.80;;;19.50;56.90;;;;;;5086445;28;45262;-68
2023/05/07 05:46:27;;;;;;;4.05;2.05;;;19.50;57.00;;;;;;5086268;28;45355;-68
2023/05/07 05:48:54;;;;;;;5.18;2.13;;;19.50;56.80;;;;;;5085899;28;46745;-68
2023/05/07 05:51:21;;;;;;;2.70;1.80;;;19.60;56.80;;;;;;5085881;28;45394;-68
2023/05/07 05:53:48;;;;;;;2.33;1.80;;;19.60;56.80;;;;;;5086088;28;45319;-68
2023/05/07 05:56:15;;;;;;;3.72;2.17;;;19.60;56.90;;;;;;5086313;28;45518;-68
2023/05/07 05:58:43;;;;;;;2.60;2.10;;;19.60;57.00;;;;;;5085861;28;46351;-68
2023/05/07 06:01:11;;;;;;;7.30;2.17;;;19.60;57.00;;;;;;5085650;28;45484;-68
2023/05/07 06:03:38;;;;;;;2.45;1.80;;;19.60;57.20;;;;;;5086040;28;45240;-68
2023/05/07 06:06:05;;;;;;;2.30;1.80;;;19.70;57.20;;;;;;5086142;28;45246;-68
2023/05/07 06:08:32;;;;;;;2.20;1.60;;;19.70;57.20;;;;;;5085724;28;46379;-68
2023/05/07 06:10:59;;;;;;;3.35;1.80;;;19.70;57.40;;;;;;5085764;28;45395;-68
2023/05/07 06:13:26;;;;;;;7.20;2.38;;;19.70;57.30;;;;;;5085942;28;45249;-69
2023/05/07 06:15:54;;;;;;;6.30;2.83;;;19.70;57.50;;;;;;5086572;27;45307;-69
2023/05/07 06:18:21;;;;;;;7.60;2.17;;;19.70;57.50;;;;;;5092177;28;45403;-67
2023/05/07 06:20:48;;;;;;;3.58;1.90;;;19.70;57.50;;;;;;5092222;28;46160;-68
2023/05/07 06:23:15;;;;;;;4.60;1.80;;;19.70;57.50;;;;;;5092394;28;45364;-66
2023/05/07 06:25:42;;;;;;;6.85;2.05;;;19.70;57.30;;;;;;5092689;28;45273;-68
2023/05/07 06:28:11;;;;;;;4.03;2.10;;;19.70;57.30;;;;;;5092029;28;46386;-68
2023/05/07 06:30:37;;;;;;;3.28;2.22;;;19.70;57.40;;;;;;5092337;28;45387;-68
2023/05/07 06:33:06;;;;;;;1.83;1.70;;;19.70;57.50;;;;;;5092384;28;45312;-66
2023/05/07 06:35:32;;;;;;;4.03;2.03;;;19.70;57.50;;;;;;5092762;28;45412;-68
2023/05/07 06:38:00;;;;;;;2.65;1.83;;;19.70;57.30;;;;;;5092077;28;46720;-68
2023/05/07 06:40:27;;;;;;;5.18;1.95;;;19.70;57.30;;;;;;5092557;28;45402;-70
2023/05/07 06:42:54;;;;;;;5.55;2.05;;;19.70;57.30;;;;;;5092508;28;45413;-69
2023/05/07 06:45:20;;;;;;;2.70;1.88;;;19.70;57.30;;;;;;5092449;28;45321;-69
2023/05/07 06:47:47;;;;;;;2.75;1.83;;;19.70;57.30;;;;;;5092254;28;46374;-71
2023/05/07 06:50:16;;;;;;;5.32;1.73;;;19.70;57.40;;;;;;5092307;28;45279;-70
2023/05/07 06:52:43;;;;;;;4.78;1.65;;;19.80;57.30;;;;;;5092422;28;45371;-70
2023/05/07 06:55:11;;;;;;;2.22;2.00;;;19.80;57.20;;;;;;5092628;28;45477;-70
2023/05/07 06:57:38;;;;;;;1.90;1.77;;;19.90;57.30;;;;;;5092144;28;45456;-70
2023/05/07 07:00:08;;;;;;;2.13;1.92;;;19.90;57.30;;;;;;5091199;28;45282;-70
2023/05/07 07:02:35;;;;;;;2.20;2.00;;;19.90;57.10;;;;;;5092168;28;45403;-70
2023/05/07 07:05:02;;;;;;;3.67;2.20;;;19.90;57.40;;;;;;5092667;28;45323;-69
2023/05/07 07:07:30;;;;;;;5.03;2.30;;;19.90;57.30;;;;;;5090840;28;47552;-69
2023/05/07 07:09:57;;;;;;;5.38;2.45;;;20.00;57.40;;;;;;5091951;28;45316;-70
2023/05/07 07:12:25;;;;;;;2.20;2.10;;;20.00;57.20;;;;;;5092028;28;45312;-70
2023/05/07 07:14:52;;;;;;;2.85;2.28;;;20.00;57.10;;;;;;5092371;28;45316;-69
2023/05/07 07:17:19;;;;;;;3.63;2.28;;;20.10;56.90;;;;;;5091812;28;46398;-70
2023/05/07 07:19:46;;;;;;;2.47;2.38;;;20.10;57.10;;;;;;5091916;28;45343;-70
2023/05/07 07:22:13;;;;;;;3.58;2.15;;;20.10;57.00;;;;;;5091830;28;45257;-70
2023/05/07 07:24:41;;;;;;;2.13;1.90;;;20.20;57.40;;;;;;5092133;28;45448;-70
2023/05/07 07:27:07;;;;;;;3.05;2.10;;;20.20;56.60;;;;;;5091604;28;46332;-70
2023/05/07 07:29:34;;;;;;;2.70;2.20;;;20.20;56.50;;;;;;5088323;28;45258;-70
2023/05/07 07:32:01;;;;;;;4.60;2.17;;;20.20;56.70;;;;;;5088337;28;45273;-70
2023/05/07 07:34:28;;;;;;;2.55;2.35;;;20.30;57.00;;;;;;5088661;28;45355;-69
2023/05/07 07:36:56;;;;;;;2.67;2.05;;;20.30;57.00;;;;;;5088227;28;46485;-69
2023/05/07 07:39:22;;;;;;;2.83;2.20;;;20.30;56.70;;;;;;5088276;28;45334;-70
2023/05/07 07:41:50;;;;;;;2.50;2.30;;;20.30;56.60;;;;;;5088489;28;45296;-69
2023/05/07 07:44:17;;;;;;;4.63;2.25;;;20.30;56.80;;;;;;5088619;28;45431;-69
2023/05/07 07:46:44;;;;;;;3.45;2.13;;;20.30;56.70;;;;;;5088205;28;45442;-70
2023/05/07 07:49:11;;;;;;;3.63;2.10;;;20.30;56.50;;;;;;5088109;28;45350;-70
2023/05/07 07:51:38;;;;;;;2.67;2.00;;;20.40;56.40;;;;;;5088053;28;45392;-70
2023/05/07 07:54:05;;;;;;;2.20;2.00;;;20.40;56.20;;;;;;5088535;28;45403;-70
2023/05/07 07:56:33;;;;;;;1.98;1.70;;;20.40;56.10;;;;;;5087930;28;46687;-70
2023/05/07 07:59:01;;;;;;;2.83;1.98;;;20.40;56.00;;;;;;5088286;28;45359;-70
2023/05/07 08:01:28;;;;;;;2.05;1.70;;;20.50;55.80;;;;;;5088135;28;45409;-70
2023/05/07 08:03:55;;;;;;;1.90;1.67;;;20.50;55.80;;;;;;5088504;28;45190;-69
2023/05/07 08:06:21;;;;;;;1.90;1.70;;;20.50;55.60;;;;;;5088463;28;45456;-70
2023/05/07 08:08:48;;;;;;;2.03;1.67;;;20.60;55.50;;;;;;5088226;28;45343;-69
2023/05/07 08:11:15;;;;;;;1.65;1.55;;;20.60;55.50;;;;;;5088675;28;45355;-70
2023/05/07 08:13:42;;;;;;;2.22;1.65;;;20.60;55.30;;;;;;5087920;28;45293;-70
2023/05/07 08:16:10;;;;;;;1.92;1.80;;;20.70;55.30;;;;;;5087067;28;45343;-68
2023/05/07 08:18:37;;;;;;;1.90;1.80;;;20.70;55.00;;;;;;5087701;28;45388;-68
2023/05/07 08:21:04;;;;;;;2.92;2.00;;;20.80;55.10;;;;;;5087350;28;45373;-70
2023/05/07 08:23:31;;;;;;;1.75;1.65;;;20.80;55.00;;;;;;5087932;28;45359;-70
2023/05/07 08:25:58;;;;;;;1.98;1.77;;;20.80;55.50;;;;;;5087625;28;46336;-68
2023/05/07 08:28:25;;;;;;;2.78;2.30;;;20.90;55.10;;;;;;5087271;28;45863;-68
2023/05/07 08:30:52;;;;;;;2.13;1.92;;;20.90;55.10;;;;;;5087658;28;45340;-68
2023/05/07 08:33:20;;;;;;;1.58;1.48;;;20.90;54.90;;;;;;5087905;28;45579;-68
2023/05/07 08:35:47;;;;;;;2.10;1.90;;;20.90;54.80;;;;;;5087319;28;46410;-68
2023/05/07 08:38:14;;;;;;;2.33;2.03;;;21.00;55.10;;;;;;5084992;28;45388;-68
2023/05/07 08:40:41;;;;;;;3.15;2.00;;;21.00;54.80;;;;;;5075530;28;45493;-68
2023/05/07 08:43:08;;;;;;;1.70;1.60;;;21.00;55.60;;;;;;5058892;28;45491;-68
2023/05/07 08:45:35;;;;;;;1.92;1.60;;;21.00;55.10;;;;;;5065590;28;47295;-69
2023/05/07 08:48:04;;;;;;;2.60;2.30;;;21.10;55.80;;;;;;5046803;28;45258;-68
2023/05/07 08:50:32;;;;;;;2.63;1.88;;;21.10;55.40;;;;;;5061630;28;45139;-69
2023/05/07 08:52:59;;;;;;;2.05;1.90;;;21.10;55.50;;;;;;5067323;28;45361;-68
2023/05/07 08:55:26;;;;;;;2.38;2.15;;;21.10;55.30;;;;;;5067006;28;45370;-69
2023/05/07 08:57:53;;;;;;;2.25;2.03;;;21.20;55.30;;;;;;5066423;28;45258;-69
2023/05/07 09:00:20;;;;;;;2.63;1.70;;;21.20;55.20;;;;;;5067184;28;45225;-69
2023/05/07 09:02:47;;;;;;;2.30;1.60;;;21.30;55.20;;;;;;5067408;28;45440;-69
2023/05/07 09:05:14;;;;;;;2.22;1.77;;;21.30;55.00;;;;;;5067081;28;45240;-69
2023/05/07 09:07:42;;;;;;;2.63;1.75;;;21.30;55.50;;;;;;5066778;28;45419;-69
2023/05/07 09:10:09;;;;;;;1.75;1.60;;;21.40;54.80;;;;;;5074800;28;45300;-69
2023/05/07 09:12:36;;;;;;;2.33;1.92;;;21.40;55.30;;;;;;5071524;28;45328;-70
2023/05/07 09:15:03;;;;;;;1.92;1.60;;;21.40;54.50;;;;;;5068979;28;46402;-69
2023/05/07 09:17:30;;;;;;;2.85;1.50;;;21.50;54.50;;;;;;5070691;28;45486;-68
2023/05/07 09:19:57;;;;;;;2.10;1.67;;;21.60;54.50;;;;;;5062452;28;45414;-69
2023/05/07 09:22:24;;;;;;;1.70;1.60;;;21.60;54.40;;;;;;5064555;28;45392;-70
2023/05/07 09:24:52;;;;;;;1.60;1.50;;;21.60;54.30;;;;;;5063542;28;45320;-69
2023/05/07 09:27:19;;;;;;;1.67;1.40;;;21.60;54.20;;;;;;5063174;28;45432;-69
2023/05/07 09:29:46;;;;;;;2.22;1.60;;;21.70;54.20;;;;;;5064462;28;45568;-68
2023/05/07 09:32:13;;;;;;;1.88;1.67;;;21.70;54.20;;;;;;5058413;28;45522;-68
2023/05/07 09:34:39;;;;;;;2.33;1.73;;;21.70;54.20;;;;;;5065255;28;45802;-68
2023/05/07 09:37:12;;;;;;;1.60;1.50;;;21.80;54.10;;;;;;5061995;28;45257;-67
2023/05/07 09:39:42;;;;;;;2.72;1.90;;;21.80;54.40;;;;;;5066795;28;45310;-68
2023/05/07 09:42:11;;;;;;;1.70;1.60;;;21.80;54.80;;;;;;5078559;28;45223;-68
2023/05/07 09:44:38;;;;;;;1.83;1.70;;;21.90;54.90;;;;;;5056927;28;46630;-68
2023/05/07 09:47:06;;;;;;;2.10;1.92;;;21.90;54.90;;;;;;5060194;28;45245;-68
2023/05/07 09:49:35;;;;;;;2.80;1.70;;;22.00;55.00;;;;;;5066222;28;45305;-67
2023/05/07 09:52:02;;;;;;;2.72;1.70;;;21.90;55.00;;;;;;5060872;28;45589;-68
2023/05/07 09:54:30;;;;;;;2.17;1.98;;;22.00;55.10;;;;;;5063781;28;46442;-68
2023/05/07 09:56:57;;;;;;;2.15;1.95;;;22.00;55.10;;;;;;5050690;28;45531;-68
2023/05/07 09:59:25;;;;;;;2.03;1.75;;;22.10;55.20;;;;;;5063065;28;45436;-67
2023/05/07 10:01:52;;;;;;;1.95;1.80;;;22.10;55.30;;;;;;5065636;28;45543;-67
2023/05/07 10:04:19;;;;;;;2.05;1.83;;;22.10;55.40;;;;;;5063741;28;45381;-68
2023/05/07 10:06:46;;;;;;;2.03;1.90;;;22.10;55.50;;;;;;5064501;28;45337;-68
2023/05/07 10:09:12;;;;;;;2.80;1.95;;;22.10;56.40;;;;;;5065827;28;45865;-68
2023/05/07 10:11:39;;;;;;;2.70;2.17;;;22.10;55.70;;;;;;5068437;28;45404;-68
2023/05/07 10:14:06;;;;;;;2.50;1.55;;;22.10;55.70;;;;;;5064775;28;46361;-67
2023/05/07 10:16:36;;;;;;;2.85;1.70;;;22.00;55.40;;;;;;5061911;28;45393;-67
2023/05/07 10:19:03;;;;;;;2.03;1.58;;;22.00;55.60;;;;;;5062411;28;45516;-67
2023/05/07 10:21:31;;;;;;;3.05;1.65;;;22.00;55.80;;;;;;5077152;28;45520;-67
2023/05/07 10:23:59;;;;;;;2.13;1.75;;;22.00;55.80;;;;;;5050960;28;45362;-68
2023/05/07 10:26:26;;;;;;;1.95;1.65;;;22.00;55.90;;;;;;5063540;28;45400;-69
2023/05/07 10:28:57;;;;;;;1.80;1.70;;;21.90;55.90;;;;;;5059376;28;45483;-67
2023/05/07 10:31:38;;;;;;;4.90;1.75;;;21.90;56.10;;;;;;5065982;28;45519;-68
2023/05/07 10:34:08;;;;;;;3.30;1.80;;;22.00;56.20;;;;;;5059941;28;45531;-68
2023/05/07 10:36:35;;;;;;;4.05;1.50;;;21.90;56.50;;;;;;5057799;28;45648;-70
2023/05/07 10:39:02;;;;;;;2.60;1.70;;;21.90;56.60;;;;;;5054148;28;45481;-68
2023/05/07 10:41:29;;;;;;;1.83;1.58;;;21.90;57.10;;;;;;5056634;28;45550;-69
2023/05/07 10:43:56;;;;;;;3.53;1.60;;;21.90;57.00;;;;;;5059223;28;45463;-69
2023/05/07 10:46:23;;;;;;;1.83;1.60;;;21.90;57.00;;;;;;5059652;28;45590;-69
2023/05/07 10:49:11;;;;;;;2.80;1.70;;;21.90;57.10;;;;;;5052886;28;45112;-70
2023/05/07 10:51:38;;;;;;;3.17;2.00;;;21.90;57.50;;;;;;5059802;28;45636;-68
2023/05/07 10:54:24;;;;;;;3.40;1.80;;;21.90;57.20;;;;;;5066477;28;47889;-70
2023/05/07 10:56:51;;;;;;;6.13;2.00;;;21.90;57.70;;;;;;5063567;28;45424;-69
2023/05/07 10:59:31;;;;;;;6.78;2.33;;;21.90;58.10;;;;;;5055475;28;45443;-69
2023/05/07 11:01:59;;;;;;;3.03;2.05;;;21.90;59.30;;;;;;5061173;28;45280;-69
2023/05/07 11:04:27;;;;;;;2.03;1.85;;;21.90;58.90;;;;;;5049982;28;46157;-70
2023/05/07 11:07:31;;;;;;;5.20;2.35;;;21.90;59.50;;;;;;5064321;28;45527;-70
2023/05/07 11:10:03;;;;;;;4.57;2.10;;;21.90;60.00;;;;;;5064641;28;45225;-71
2023/05/07 11:12:53;;;;;;;4.10;2.00;;;21.90;59.70;;;;;;5068641;28;45590;-69
2023/05/07 11:15:39;;;;;;;5.20;2.20;;;22.00;61.20;;;;;;5066751;28;45492;-70
2023/05/07 11:18:05;;;;;;;3.65;2.22;;;22.00;60.30;;;;;;5067566;28;45378;-70
2023/05/07 11:20:56;;;;;;;2.33;2.13;;;22.10;59.90;;;;;;5067989;28;45232;-70
2023/05/07 11:24:00;;;;;;;2.08;1.88;;;22.10;60.90;;;;;;5063841;28;45457;-69
2023/05/07 11:26:27;;;;;;;2.53;2.25;;;22.20;59.50;;;;;;5068081;28;45415;-70
2023/05/07 11:28:54;;;;;;;2.78;2.30;;;22.30;61.20;;;;;;5067022;28;45444;-70
2023/05/07 11:31:23;;;;;;;2.72;1.70;;;22.30;60.30;;;;;;5067420;28;45502;-70
2023/05/07 11:33:50;;;;;;;3.17;1.90;;;22.30;59.10;;;;;;5068198;28;45516;-69
2023/05/07 11:36:18;;;;;;;1.90;1.80;;;22.30;59.50;;;;;;5067031;28;45449;-70
2023/05/07 11:38:45;;;;;;;3.95;1.80;;;22.40;59.30;;;;;;5066241;28;45425;-68
2023/05/07 11:41:11;;;;;;;3.97;2.20;;;22.40;59.00;;;;;;5063229;28;45756;-69
2023/05/07 11:43:39;;;;;;;4.55;2.58;;;22.50;59.30;;;;;;5064213;28;45470;-69
2023/05/07 11:46:07;;;;;;;2.65;1.80;;;22.50;59.50;;;;;;5061540;28;47666;-69
2023/05/07 11:48:34;;;;;;;2.42;2.20;;;22.50;59.30;;;;;;5068218;28;45286;-70
2023/05/07 11:51:02;;;;;;;2.70;1.88;;;22.50;59.70;;;;;;5064434;28;45466;-68
2023/05/07 11:53:36;;;;;;;3.08;1.63;;;22.50;59.10;;;;;;5054318;28;45506;-68
2023/05/07 11:56:07;;;;;;;2.35;1.80;;;22.40;58.60;;;;;;5064786;28;45424;-68
2023/05/07 11:58:34;;;;;;;3.20;1.92;;;22.40;58.70;;;;;;5065538;28;45371;-68
2023/05/07 12:01:01;;;;;;;3.00;1.70;;;22.50;59.00;;;;;;5070110;28;45546;-68
2023/05/07 12:03:27;;;;;;;2.25;1.80;;;22.50;59.00;;;;;;5064810;28;45174;-67
2023/05/07 12:05:54;;;;;;;2.60;2.00;;;22.50;58.90;;;;;;5065926;28;46365;-68
2023/05/07 12:08:22;;;;;;;6.30;2.50;;;22.50;59.10;;;;;;5074187;28;45317;-68
2023/05/07 12:10:50;;;;;;;7.88;1.90;;;22.50;60.10;;;;;;5078745;28;45275;-67
2023/05/07 12:13:17;;;;;;;5.05;2.03;;;22.50;60.00;;;;;;5066122;28;45439;-65
2023/05/07 12:15:44;;;;;;;7.90;2.75;;;22.50;60.50;;;;;;5066329;28;46434;-66
2023/05/07 12:18:11;;;;;;;7.30;2.80;;;22.60;59.90;;;;;;5075793;28;45485;-69
2023/05/07 12:20:38;;;;;;;12.25;2.90;;;22.60;59.80;;;;;;5069077;28;45333;-68
2023/05/07 12:23:05;;;;;;;6.22;2.25;;;22.80;60.40;;;;;;5066326;28;45401;-67
2023/05/07 12:25:32;;;;;;;9.30;2.80;;;22.90;60.30;;;;;;5064669;28;45638;-65
2023/05/07 12:28:01;;;;;;;7.93;2.40;;;23.10;60.50;;;;;;5065239;28;45393;-70
2023/05/07 12:30:28;;;;;;;5.93;2.50;;;23.20;59.30;;;;;;5068419;28;45365;-70
2023/05/07 12:32:54;;;;;;;4.55;2.03;;;23.20;57.90;;;;;;5063499;28;45421;-69
2023/05/07 12:35:28;;;;;;;4.60;2.33;;;23.30;58.20;;;;;;5065753;28;46400;-68
2023/05/07 12:37:59;;;;;;;4.65;2.70;;;23.30;58.90;;;;;;5069292;28;45443;-68
2023/05/07 12:40:26;;;;;;;4.13;2.33;;;23.30;58.40;;;;;;5065221;28;45513;-68
2023/05/07 12:42:54;;;;;;;3.28;2.30;;;23.30;58.60;;;;;;5074288;28;45514;-68
2023/05/07 12:45:23;;;;;;;3.45;2.47;;;23.20;58.60;;;;;;5071983;28;46682;-67
2023/05/07 12:47:49;;;;;;;3.97;2.10;;;23.20;58.50;;;;;;5065634;28;45452;-67
2023/05/07 12:50:16;;;;;;;3.55;2.30;;;23.10;58.60;;;;;;5065824;28;45451;-67